sensor_id;sensor_type;location;lat;lon;timestamp;pressure;altitude;pressure_sealevel;temperature;humidity
49104;BME280;34915;52.926;11.116;2022-09-13T00:01:27;100962.19;;;14.70;100.00
49104;BME280;34915;52.926;11.116;2022-09-13T00:03:52;100964.84;;;14.70;100.00
49104;BME280;34915;52.926;11.116;2022-09-13T00:06:18;100970.66;;;14.75;100.00
49104;BME280;34915;52.926;11.116;2022-09-13T00:08:44;100969.81;;;14.74;100.00
49104;BME280;34915;52.926;11.116;2022-09-13T00:11:19;100961.94;;;14.73;100.00
49104;BME280;34915;52.926;11.116;2022-09-13T00:13:45;100936.03;;;14.64;100.00
49104;BME280;34915;52.926;11.116;2022-09-13T00:16:13;100951.53;;;14.70;100.00
49104;BME280;34915;52.926;11.116;2022-09-13T00:18:40;100936.91;;;14.64;100.00
49104;BME280;34915;52.926;11.116;2022-09-13T00:21:14;100935.53;;;14.70;100.00
49104;BME280;34915;52.926;11.116;2022-09-13T00:23:49;100934.56;;;14.71;100.00
49104;BME280;34915;52.926;11.116;2022-09-13T00:26:21;100919.53;;;14.70;100.00
49104;BME280;34915;52.926;11.116;2022-09-13T00:28:51;100927.06;;;14.65;100.00
49104;BME280;34915;52.926;11.116;2022-09-13T00:31:18;100925.59;;;14.72;100.00
49104;BME280;34915;52.926;11.116;2022-09-13T00:33:43;100918.56;;;14.71;100.00
49104;BME280;34915;52.926;11.116;2022-09-13T00:36:10;100924.84;;;14.70;100.00
49104;BME280;34915;52.926;11.116;2022-09-13T00:38:39;100919.25;;;14.73;100.00
49104;BME280;34915;52.926;11.116;2022-09-13T00:41:09;100913.09;;;14.72;100.00
49104;BME280;34915;52.926;11.116;2022-09-13T00:43:45;100907.38;;;14.77;100.00
49104;BME280;34915;52.926;11.116;2022-09-13T00:46:22;100907.09;;;14.79;100.00
49104;BME280;34915;52.926;11.116;2022-09-13T00:48:55;100913.16;;;14.81;100.00
49104;BME280;34915;52.926;11.116;2022-09-13T00:51:25;100906.41;;;14.77;100.00
49104;BME280;34915;52.926;11.116;2022-09-13T00:53:52;100911.47;;;14.80;100.00
49104;BME280;34915;52.926;11.116;2022-09-13T00:56:28;100900.78;;;14.80;100.00
49104;BME280;34915;52.926;11.116;2022-09-13T00:59:02;100897.44;;;14.78;100.00
49104;BME280;34915;52.926;11.116;2022-09-13T01:01:37;100896.91;;;14.84;100.00
49104;BME280;34915;52.926;11.116;2022-09-13T01:04:06;100898.84;;;14.82;100.00
49104;BME280;34915;52.926;11.116;2022-09-13T01:06:33;100894.50;;;14.81;100.00
49104;BME280;34915;52.926;11.116;2022-09-13T01:09:01;100884.78;;;14.80;100.00
49104;BME280;34915;52.926;11.116;2022-09-13T01:14:08;100881.44;;;14.78;100.00
49104;BME280;34915;52.926;11.116;2022-09-13T01:16:34;100887.31;;;14.82;100.00
49104;BME280;34915;52.926;11.116;2022-09-13T01:19:00;100874.13;;;14.80;100.00
49104;BME280;34915;52.926;11.116;2022-09-13T01:49:34;100830.09;;;14.86;100.00
49104;BME280;34915;52.926;11.116;2022-09-13T01:52:35;100824.00;;;14.84;100.00
49104;BME280;34915;52.926;11.116;2022-09-13T01:57:52;100805.34;;;14.84;100.00
49104;BME280;34915;52.926;11.116;2022-09-13T02:00:19;100808.16;;;14.82;100.00
49104;BME280;34915;52.926;11.116;2022-09-13T02:02:52;100799.44;;;14.80;100.00
49104;BME280;34915;52.926;11.116;2022-09-13T02:08:04;100788.06;;;14.78;100.00
49104;BME280;34915;52.926;11.116;2022-09-13T02:10:52;100789.56;;;14.72;100.00
49104;BME280;34915;52.926;11.116;2022-09-13T02:13:25;100799.16;;;14.83;100.00
49104;BME280;34915;52.926;11.116;2022-09-13T02:15:57;100799.16;;;14.83;100.00
49104;BME280;34915;52.926;11.116;2022-09-13T02:18:48;100793.31;;;14.89;100.00
49104;BME280;34915;52.926;11.116;2022-09-13T02:21:21;100798.38;;;14.92;100.00
49104;BME280;34915;52.926;11.116;2022-09-13T02:23:53;100789.41;;;14.93;100.00
49104;BME280;34915;52.926;11.116;2022-09-13T02:26:21;100790.22;;;14.94;100.00
49104;BME280;34915;52.926;11.116;2022-09-13T02:28:53;100780.38;;;14.94;100.00
49104;BME280;34915;52.926;11.116;2022-09-13T02:31:47;100783.19;;;14.93;100.00
49104;BME280;34915;52.926;11.116;2022-09-13T02:34:24;100788.25;;;14.96;100.00
49104;BME280;34915;52.926;11.116;2022-09-13T02:36:53;100780.13;;;14.97;100.00
49104;BME280;34915;52.926;11.116;2022-09-13T02:39:25;100770.72;;;14.93;100.00
49104;BME280;34915;52.926;11.116;2022-09-13T02:41:55;100781.81;;;14.98;100.00
49104;BME280;34915;52.926;11.116;2022-09-13T02:44:35;100772.84;;;14.99;100.00
49104;BME280;34915;52.926;11.116;2022-09-13T02:49:54;100772.56;;;15.02;100.00
49104;BME280;34915;52.926;11.116;2022-09-13T02:58:01;100758.81;;;15.07;100.00
49104;BME280;34915;52.926;11.116;2022-09-13T03:00:27;100765.25;;;15.04;100.00
49104;BME280;34915;52.926;11.116;2022-09-13T03:02:55;100775.50;;;14.99;100.00
49104;BME280;34915;52.926;11.116;2022-09-13T03:05:23;100779.00;;;14.90;100.00
49104;BME280;34915;52.926;11.116;2022-09-13T03:07:49;100786.81;;;14.82;100.00
49104;BME280;34915;52.926;11.116;2022-09-13T03:10:15;100793.78;;;14.74;100.00
49104;BME280;34915;52.926;11.116;2022-09-13T03:13:13;100808.41;;;14.79;100.00
49104;BME280;34915;52.926;11.116;2022-09-13T03:25:05;100819.88;;;14.71;100.00
49104;BME280;34915;52.926;11.116;2022-09-13T03:30:14;100810.59;;;14.65;100.00
49104;BME280;34915;52.926;11.116;2022-09-13T03:37:56;100804.25;;;14.57;100.00
49104;BME280;34915;52.926;11.116;2022-09-13T03:40:37;100791.09;;;14.44;100.00
49104;BME280;34915;52.926;11.116;2022-09-13T03:43:15;100784.94;;;14.44;100.00
49104;BME280;34915;52.926;11.116;2022-09-13T03:45:49;100776.47;;;14.39;100.00
49104;BME280;34915;52.926;11.116;2022-09-13T03:48:17;100786.09;;;14.51;100.00
49104;BME280;34915;52.926;11.116;2022-09-13T03:50:45;100789.47;;;14.53;100.00
49104;BME280;34915;52.926;11.116;2022-09-13T03:53:15;100783.53;;;14.49;100.00
49104;BME280;34915;52.926;11.116;2022-09-13T03:55:42;100747.63;;;14.44;100.00
49104;BME280;34915;52.926;11.116;2022-09-13T03:58:19;100753.25;;;14.50;100.00
49104;BME280;34915;52.926;11.116;2022-09-13T04:00:45;100761.97;;;14.52;100.00
49104;BME280;34915;52.926;11.116;2022-09-13T04:03:11;100768.16;;;14.53;100.00
49104;BME280;34915;52.926;11.116;2022-09-13T04:05:37;100757.22;;;14.56;100.00
49104;BME280;34915;52.926;11.116;2022-09-13T04:08:04;100753.59;;;14.57;100.00
49104;BME280;34915;52.926;11.116;2022-09-13T04:10:34;100730.28;;;14.59;100.00
49104;BME280;34915;52.926;11.116;2022-09-13T04:12:59;100739.53;;;14.55;100.00
49104;BME280;34915;52.926;11.116;2022-09-13T04:15:26;100729.59;;;14.57;100.00
49104;BME280;34915;52.926;11.116;2022-09-13T04:17:52;100737.59;;;14.57;100.00
49104;BME280;34915;52.926;11.116;2022-09-13T04:20:17;100728.59;;;14.58;100.00
49104;BME280;34915;52.926;11.116;2022-09-13T04:22:50;100723.00;;;14.61;100.00
49104;BME280;34915;52.926;11.116;2022-09-13T04:25:16;100735.63;;;14.59;100.00
49104;BME280;34915;52.926;11.116;2022-09-13T04:27:42;100732.25;;;14.57;100.00
49104;BME280;34915;52.926;11.116;2022-09-13T04:30:07;100734.38;;;14.63;100.00
49104;BME280;34915;52.926;11.116;2022-09-13T04:32:33;100734.53;;;14.61;100.00
49104;BME280;34915;52.926;11.116;2022-09-13T04:34:59;100728.59;;;14.58;100.00
49104;BME280;34915;52.926;11.116;2022-09-13T04:37:24;100728.31;;;14.61;100.00
49104;BME280;34915;52.926;11.116;2022-09-13T04:39:50;100722.16;;;14.60;100.00
49104;BME280;34915;52.926;11.116;2022-09-13T04:42:16;100716.00;;;14.60;100.00
49104;BME280;34915;52.926;11.116;2022-09-13T04:44:41;100727.63;;;14.59;100.00
49104;BME280;34915;52.926;11.116;2022-09-13T04:47:09;100716.00;;;14.60;100.00
49104;BME280;34915;52.926;11.116;2022-09-13T04:49:34;100716.00;;;14.60;100.00
49104;BME280;34915;52.926;11.116;2022-09-13T04:52:00;100704.31;;;14.61;100.00
49104;BME280;34915;52.926;11.116;2022-09-13T04:54:25;100719.09;;;14.65;100.00
49104;BME280;34915;52.926;11.116;2022-09-13T04:56:51;100718.94;;;14.66;100.00
49104;BME280;34915;52.926;11.116;2022-09-13T04:59:17;100711.78;;;14.67;100.00
49104;BME280;34915;52.926;11.116;2022-09-13T05:01:43;100727.78;;;14.67;100.00
49104;BME280;34915;52.926;11.116;2022-09-13T05:04:09;100728.06;;;14.64;100.00
49104;BME280;34915;52.926;11.116;2022-09-13T05:06:37;100722.44;;;14.67;100.00
49104;BME280;34915;52.926;11.116;2022-09-13T05:09:03;100735.91;;;14.65;100.00
49104;BME280;34915;52.926;11.116;2022-09-13T05:11:30;100740.16;;;14.68;100.00
49104;BME280;34915;52.926;11.116;2022-09-13T05:13:57;100729.47;;;14.68;100.00
49104;BME280;34915;52.926;11.116;2022-09-13T05:16:29;100734.28;;;14.74;100.00
49104;BME280;34915;52.926;11.116;2022-09-13T05:18:55;100745.47;;;14.68;100.00
49104;BME280;34915;52.926;11.116;2022-09-13T05:21:23;100749.44;;;14.73;100.00
49104;BME280;34915;52.926;11.116;2022-09-13T05:23:50;100740.16;;;14.68;100.00
49104;BME280;34915;52.926;11.116;2022-09-13T05:26:17;100734.53;;;14.71;100.00
49104;BME280;34915;52.926;11.116;2022-09-13T05:28:42;100729.22;;;14.71;100.00
49104;BME280;34915;52.926;11.116;2022-09-13T05:31:19;100728.94;;;14.74;100.00
49104;BME280;34915;52.926;11.116;2022-09-13T05:33:51;100727.97;;;14.75;100.00
49104;BME280;34915;52.926;11.116;2022-09-13T05:36:16;100710.97;;;14.76;100.00
49104;BME280;34915;52.926;11.116;2022-09-13T05:38:42;100711.28;;;14.82;100.00
49104;BME280;34915;52.926;11.116;2022-09-13T05:41:08;100706.50;;;14.85;100.00
49104;BME280;34915;52.926;11.116;2022-09-13T05:43:35;100707.50;;;14.84;100.00
49104;BME280;34915;52.926;11.116;2022-09-13T05:46:14;100709.19;;;14.85;100.00
49104;BME280;34915;52.926;11.116;2022-09-13T05:48:41;100697.53;;;14.86;100.00
49104;BME280;34915;52.926;11.116;2022-09-13T05:51:12;100694.88;;;14.86;100.00
49104;BME280;34915;52.926;11.116;2022-09-13T05:53:39;100691.94;;;14.89;100.00
49104;BME280;34915;52.926;11.116;2022-09-13T05:56:06;100697.00;;;14.92;100.00
49104;BME280;34915;52.926;11.116;2022-09-13T05:58:32;100697.00;;;14.92;100.00
49104;BME280;34915;52.926;11.116;2022-09-13T06:00:59;100702.31;;;14.92;100.00
49104;BME280;34915;52.926;11.116;2022-09-13T06:03:24;100698.13;;;14.99;100.00
49104;BME280;34915;52.926;11.116;2022-09-13T06:05:54;100692.06;;;14.97;100.00
49104;BME280;34915;52.926;11.116;2022-09-13T06:08:21;100705.88;;;15.02;100.00
49104;BME280;34915;52.926;11.116;2022-09-13T06:10:58;100704.63;;;15.06;100.00
49104;BME280;34915;52.926;11.116;2022-09-13T06:13:24;100690.00;;;15.10;100.00
49104;BME280;34915;52.926;11.116;2022-09-13T06:15:51;100690.00;;;15.10;100.00
49104;BME280;34915;52.926;11.116;2022-09-13T06:18:17;100688.34;;;15.09;100.00
49104;BME280;34915;52.926;11.116;2022-09-13T06:20:43;100688.06;;;15.12;100.00
49104;BME280;34915;52.926;11.116;2022-09-13T06:23:09;100694.78;;;15.16;100.00
49104;BME280;34915;52.926;11.116;2022-09-13T06:25:35;100691.13;;;15.17;100.00
49104;BME280;34915;52.926;11.116;2022-09-13T06:28:05;100688.47;;;15.17;100.00
49104;BME280;34915;52.926;11.116;2022-09-13T06:30:31;100694.28;;;15.22;100.00
49104;BME280;34915;52.926;11.116;2022-09-13T06:32:56;100692.31;;;15.24;100.00
49104;BME280;34915;52.926;11.116;2022-09-13T06:35:22;100698.78;;;15.31;100.00
49104;BME280;34915;52.926;11.116;2022-09-13T06:37:48;100702.16;;;15.33;100.00
49104;BME280;34915;52.926;11.116;2022-09-13T06:40:14;100690.50;;;15.34;100.00
49104;BME280;34915;52.926;11.116;2022-09-13T06:42:41;100687.53;;;15.37;100.00
49104;BME280;34915;52.926;11.116;2022-09-13T06:45:07;100696.56;;;15.45;100.00
49104;BME280;34915;52.926;11.116;2022-09-13T06:47:34;100688.69;;;15.44;100.00
49104;BME280;34915;52.926;11.116;2022-09-13T06:50:00;100691.91;;;15.47;100.00
49104;BME280;34915;52.926;11.116;2022-09-13T06:52:26;100692.03;;;15.46;100.00
49104;BME280;34915;52.926;11.116;2022-09-13T06:54:52;100692.03;;;15.55;100.00
49104;BME280;34915;52.926;11.116;2022-09-13T06:57:20;100677.16;;;15.53;100.00
49104;BME280;34915;52.926;11.116;2022-09-13T06:59:46;100684.16;;;15.54;100.00
49104;BME280;34915;52.926;11.116;2022-09-13T07:02:11;100687.84;;;15.53;100.00
49104;BME280;34915;52.926;11.116;2022-09-13T07:04:38;100697.09;;;15.58;100.00
49104;BME280;34915;52.926;11.116;2022-09-13T07:07:04;100704.66;;;15.63;100.00
49104;BME280;34915;52.926;11.116;2022-09-13T07:09:31;100707.34;;;15.63;100.00
49104;BME280;34915;52.926;11.116;2022-09-13T07:11:58;100713.41;;;15.83;100.00
49104;BME280;34915;52.926;11.116;2022-09-13T07:14:26;100724.38;;;15.80;100.00
49104;BME280;34915;52.926;11.116;2022-09-13T07:16:53;100724.78;;;15.85;100.00
49104;BME280;34915;52.926;11.116;2022-09-13T07:19:21;100737.56;;;15.91;100.00
49104;BME280;34915;52.926;11.116;2022-09-13T07:21:48;100741.22;;;16.09;100.00
49104;BME280;34915;52.926;11.116;2022-09-13T07:24:16;100743.75;;;16.01;100.00
49104;BME280;34915;52.926;11.116;2022-09-13T07:26:42;100739.81;;;16.05;100.00
49104;BME280;34915;52.926;11.116;2022-09-13T07:29:11;100743.44;;;16.04;100.00
49104;BME280;34915;52.926;11.116;2022-09-13T07:31:39;100737.97;;;16.06;100.00
49104;BME280;34915;52.926;11.116;2022-09-13T07:34:09;100728.56;;;15.92;100.00
49104;BME280;34915;52.926;11.116;2022-09-13T07:36:36;100733.34;;;15.98;100.00
49104;BME280;34915;52.926;11.116;2022-09-13T07:39:03;100724.34;;;15.99;100.00
49104;BME280;34915;52.926;11.116;2022-09-13T07:41:30;100727.13;;;16.07;100.00
49104;BME280;34915;52.926;11.116;2022-09-13T07:43:58;100725.72;;;16.03;100.00
49104;BME280;34915;52.926;11.116;2022-09-13T07:46:29;100733.06;;;16.11;100.00
49104;BME280;34915;52.926;11.116;2022-09-13T07:48:59;100735.53;;;16.22;100.00
49104;BME280;34915;52.926;11.116;2022-09-13T07:51:28;100745.97;;;16.15;100.00
49104;BME280;34915;52.926;11.116;2022-09-13T07:53:56;100741.75;;;16.13;100.00
49104;BME280;34915;52.926;11.116;2022-09-13T07:56:41;100733.00;;;16.20;100.00
49104;BME280;34915;52.926;11.116;2022-09-13T07:59:11;100727.13;;;16.26;100.00
49104;BME280;34915;52.926;11.116;2022-09-13T08:01:40;100718.97;;;16.18;100.00
49104;BME280;34915;52.926;11.116;2022-09-13T08:04:07;100720.34;;;16.22;100.00
49104;BME280;34915;52.926;11.116;2022-09-13T08:06:35;100725.94;;;16.38;100.00
49104;BME280;34915;52.926;11.116;2022-09-13T08:09:02;100726.25;;;16.35;100.00
49104;BME280;34915;52.926;11.116;2022-09-13T08:11:32;100730.91;;;16.33;100.00
49104;BME280;34915;52.926;11.116;2022-09-13T08:13:59;100719.47;;;16.40;100.00
49104;BME280;34915;52.926;11.116;2022-09-13T08:16:30;100723.28;;;16.38;100.00
49104;BME280;34915;52.926;11.116;2022-09-13T08:18:58;100725.94;;;16.38;100.00
49104;BME280;34915;52.926;11.116;2022-09-13T08:21:35;100709.31;;;16.44;100.00
49104;BME280;34915;52.926;11.116;2022-09-13T08:24:01;100725.59;;;16.60;100.00
49104;BME280;34915;52.926;11.116;2022-09-13T08:26:28;100731.53;;;16.63;100.00
49104;BME280;34915;52.926;11.116;2022-09-13T08:28:58;100734.63;;;16.59;100.00
49104;BME280;34915;52.926;11.116;2022-09-13T08:31:25;100733.44;;;16.71;100.00
49104;BME280;34915;52.926;11.116;2022-09-13T08:33:51;100718.75;;;16.75;100.00
49104;BME280;34915;52.926;11.116;2022-09-13T08:36:23;100733.16;;;16.74;100.00
49104;BME280;34915;52.926;11.116;2022-09-13T08:38:52;100737.91;;;16.79;100.00
49104;BME280;34915;52.926;11.116;2022-09-13T08:44:28;100726.91;;;16.82;100.00
49104;BME280;34915;52.926;11.116;2022-09-13T08:48:17;100729.69;;;16.90;100.00
49104;BME280;34915;52.926;11.116;2022-09-13T08:50:20;100729.06;;;16.96;100.00
49104;BME280;34915;52.926;11.116;2022-09-13T08:56:16;100731.19;;;17.02;100.00
49104;BME280;34915;52.926;11.116;2022-09-13T09:03:41;100732.97;;;17.11;100.00
49104;BME280;34915;52.926;11.116;2022-09-13T09:06:12;100738.63;;;17.08;100.00
49104;BME280;34915;52.926;11.116;2022-09-13T09:08:40;100743.38;;;17.14;100.00
49104;BME280;34915;52.926;11.116;2022-09-13T09:11:12;100745.44;;;17.20;100.00
49104;BME280;34915;52.926;11.116;2022-09-13T09:13:58;100734.03;;;17.18;100.00
49104;BME280;34915;52.926;11.116;2022-09-13T09:16:37;100750.38;;;17.15;100.00
49104;BME280;34915;52.926;11.116;2022-09-13T09:19:21;100752.09;;;17.16;100.00
49104;BME280;34915;52.926;11.116;2022-09-13T09:21:50;100748.53;;;17.25;100.00
49104;BME280;34915;52.926;11.116;2022-09-13T09:24:20;100744.88;;;17.26;100.00
49104;BME280;34915;52.926;11.116;2022-09-13T09:26:49;100750.91;;;17.28;100.00
49104;BME280;34915;52.926;11.116;2022-09-13T09:29:31;100745.25;;;17.31;100.00
49104;BME280;34915;52.926;11.116;2022-09-13T09:34:50;100759.84;;;17.46;100.00
49104;BME280;34915;52.926;11.116;2022-09-13T09:37:24;100743.47;;;17.49;100.00
49104;BME280;34915;52.926;11.116;2022-09-13T09:39:52;100741.47;;;17.51;100.00
49104;BME280;34915;52.926;11.116;2022-09-13T09:42:24;100742.44;;;17.50;100.00
49104;BME280;34915;52.926;11.116;2022-09-13T09:44:54;100741.47;;;17.51;100.00
49104;BME280;34915;52.926;11.116;2022-09-13T09:47:24;100747.59;;;17.61;100.00
49104;BME280;34915;52.926;11.116;2022-09-13T09:50:06;100751.72;;;17.73;100.00
49104;BME280;34915;52.926;11.116;2022-09-13T09:55:29;100748.19;;;17.89;100.00
49104;BME280;34915;52.926;11.116;2022-09-13T10:00:33;100742.34;;;18.11;100.00
49104;BME280;34915;52.926;11.116;2022-09-13T10:03:06;100730.56;;;18.04;100.00
49104;BME280;34915;52.926;11.116;2022-09-13T10:05:34;100725.72;;;18.08;100.00
49104;BME280;34915;52.926;11.116;2022-09-13T10:08:04;100732.69;;;18.18;100.00
49104;BME280;34915;52.926;11.116;2022-09-13T10:10:43;100730.09;;;18.26;100.00
49104;BME280;34915;52.926;11.116;2022-09-13T10:13:20;100725.53;;;18.27;100.00
49104;BME280;34915;52.926;11.116;2022-09-13T10:15:55;100718.72;;;18.32;100.00
49104;BME280;34915;52.926;11.116;2022-09-13T10:18:24;100716.81;;;18.50;100.00
49104;BME280;34915;52.926;11.116;2022-09-13T10:21:44;100728.47;;;18.66;100.00
49104;BME280;34915;52.926;11.116;2022-09-13T10:23:50;100716.91;;;18.66;100.00
49104;BME280;34915;52.926;11.116;2022-09-13T10:26:20;100730.31;;;18.66;100.00
49104;BME280;34915;52.926;11.116;2022-09-13T10:31:27;100729.72;;;18.79;100.00
49104;BME280;34915;52.926;11.116;2022-09-13T10:33:58;100731.41;;;18.80;100.00
49104;BME280;34915;52.926;11.116;2022-09-13T10:36:28;100722.69;;;18.86;100.00
49104;BME280;34915;52.926;11.116;2022-09-13T10:38:58;100719.34;;;18.92;100.00
49104;BME280;34915;52.926;11.116;2022-09-13T10:41:31;100733.03;;;19.07;100.00
49104;BME280;34915;52.926;11.116;2022-09-13T10:44:02;100722.09;;;19.00;100.00
49104;BME280;34915;52.926;11.116;2022-09-13T10:46:30;100732.53;;;19.03;100.00
49104;BME280;34915;52.926;11.116;2022-09-13T10:48:57;100730.19;;;19.08;100.00
49104;BME280;34915;52.926;11.116;2022-09-13T10:56:40;100734.31;;;18.95;100.00
49104;BME280;34915;52.926;11.116;2022-09-13T10:59:21;100722.75;;;18.94;100.00
49104;BME280;34915;52.926;11.116;2022-09-13T11:20:46;100715.28;;;19.94;95.42
49104;BME280;34915;52.926;11.116;2022-09-13T11:34:10;100712.19;;;19.74;97.18
49104;BME280;34915;52.926;11.116;2022-09-13T11:47:13;100691.69;;;20.28;96.97
49104;BME280;34915;52.926;11.116;2022-09-13T11:50:22;100699.75;;;20.36;94.08
49104;BME280;34915;52.926;11.116;2022-09-13T11:52:52;100692.50;;;20.44;94.81
49104;BME280;34915;52.926;11.116;2022-09-13T11:55:26;100698.34;;;20.48;93.83
49104;BME280;34915;52.926;11.116;2022-09-13T11:57:57;100671.44;;;20.56;92.74
49104;BME280;34915;52.926;11.116;2022-09-13T12:00:28;100678.13;;;20.76;91.83
49104;BME280;34915;52.926;11.116;2022-09-13T12:05:38;100677.03;;;20.92;91.69
49104;BME280;34915;52.926;11.116;2022-09-13T12:10:56;100662.53;;;20.55;89.05
49104;BME280;34915;52.926;11.116;2022-09-13T12:13:26;100666.34;;;20.61;91.62
49104;BME280;34915;52.926;11.116;2022-09-13T12:15:55;100667.34;;;20.68;93.76
49104;BME280;34915;52.926;11.116;2022-09-13T12:21:02;100670.06;;;20.76;89.46
49104;BME280;34915;52.926;11.116;2022-09-13T12:23:42;100663.50;;;20.62;89.70
49104;BME280;34915;52.926;11.116;2022-09-13T12:26:25;100657.63;;;20.59;88.17
49104;BME280;34915;52.926;11.116;2022-09-13T12:29:01;100663.38;;;20.48;88.87
49104;BME280;34915;52.926;11.116;2022-09-13T12:31:30;100661.38;;;20.42;89.66
49104;BME280;34915;52.926;11.116;2022-09-13T12:33:56;100665.78;;;20.35;91.34
49104;BME280;34915;52.926;11.116;2022-09-13T13:01:26;100636.50;;;21.16;87.31
49104;BME280;34915;52.926;11.116;2022-09-13T13:04:13;100637.25;;;21.25;86.56
49104;BME280;34915;52.926;11.116;2022-09-13T13:11:56;100643.25;;;21.12;86.15
49104;BME280;34915;52.926;11.116;2022-09-13T13:14:45;100640.28;;;20.99;84.75
49104;BME280;34915;52.926;11.116;2022-09-13T13:23:36;100634.34;;;20.74;85.64
49104;BME280;34915;52.926;11.116;2022-09-13T13:28:51;100649.81;;;20.79;83.91
49104;BME280;34915;52.926;11.116;2022-09-13T13:41:43;100644.03;;;21.21;78.98
49104;BME280;34915;52.926;11.116;2022-09-13T13:59:53;100629.63;;;21.06;77.40
49104;BME280;34915;52.926;11.116;2022-09-13T14:02:28;100632.03;;;21.23;76.16
49104;BME280;34915;52.926;11.116;2022-09-13T14:10:24;100621.44;;;21.52;72.58
49104;BME280;34915;52.926;11.116;2022-09-13T14:13:11;100621.72;;;21.57;71.39
49104;BME280;34915;52.926;11.116;2022-09-13T14:15:50;100616.13;;;21.80;70.08
49104;BME280;34915;52.926;11.116;2022-09-13T14:21:29;100625.44;;;21.92;70.67
49104;BME280;34915;52.926;11.116;2022-09-13T14:24:19;100636.00;;;21.79;69.50
49104;BME280;34915;52.926;11.116;2022-09-13T14:26:51;100635.19;;;21.57;70.41
49104;BME280;34915;52.926;11.116;2022-09-13T14:29:19;100631.94;;;21.39;70.39
49104;BME280;34915;52.926;11.116;2022-09-13T14:31:50;100629.53;;;21.22;71.23
49104;BME280;34915;52.926;11.116;2022-09-13T14:34:27;100628.06;;;21.19;71.63
49104;BME280;34915;52.926;11.116;2022-09-13T14:36:55;100625.22;;;21.35;70.55
49104;BME280;34915;52.926;11.116;2022-09-13T14:39:21;100619.13;;;21.41;70.30
49104;BME280;34915;52.926;11.116;2022-09-13T14:41:48;100625.81;;;21.45;70.59
49104;BME280;34915;52.926;11.116;2022-09-13T14:44:23;100618.91;;;21.50;70.38
49104;BME280;34915;52.926;11.116;2022-09-13T14:47:06;100621.94;;;21.70;68.84
49104;BME280;34915;52.926;11.116;2022-09-13T14:49:42;100612.19;;;21.69;65.40
49104;BME280;34915;52.926;11.116;2022-09-13T14:52:15;100615.75;;;21.83;64.58
49104;BME280;34915;52.926;11.116;2022-09-13T14:54:48;100621.22;;;21.76;65.31
49104;BME280;34915;52.926;11.116;2022-09-13T14:57:27;100608.81;;;21.67;62.83
49104;BME280;34915;52.926;11.116;2022-09-13T15:00:21;100621.66;;;21.65;62.63
49104;BME280;34915;52.926;11.116;2022-09-13T15:02:49;100612.59;;;21.58;63.06
49104;BME280;34915;52.926;11.116;2022-09-13T15:05:18;100627.09;;;21.57;63.31
49104;BME280;34915;52.926;11.116;2022-09-13T15:07:45;100611.22;;;21.39;62.39
49104;BME280;34915;52.926;11.116;2022-09-13T15:12:36;100614.22;;;21.22;65.34
49104;BME280;34915;52.926;11.116;2022-09-13T15:23:24;100617.75;;;20.92;66.30
49104;BME280;34915;52.926;11.116;2022-09-13T15:28:25;100611.50;;;21.00;64.64
49104;BME280;34915;52.926;11.116;2022-09-13T15:30:52;100610.13;;;21.04;63.47
49104;BME280;34915;52.926;11.116;2022-09-13T15:33:24;100618.03;;;21.05;63.62
49104;BME280;34915;52.926;11.116;2022-09-13T15:35:51;100617.72;;;21.00;63.47
49104;BME280;34915;52.926;11.116;2022-09-13T15:38:26;100614.69;;;21.03;62.94
49104;BME280;34915;52.926;11.116;2022-09-13T15:41:17;100613.72;;;20.88;64.97
49104;BME280;34915;52.926;11.116;2022-09-13T15:43:43;100611.47;;;20.70;66.45
49104;BME280;34915;52.926;11.116;2022-09-13T15:46:15;100615.22;;;20.69;65.75
49104;BME280;34915;52.926;11.116;2022-09-13T15:48:50;100608.81;;;20.62;67.11
49104;BME280;34915;52.926;11.116;2022-09-13T15:51:16;100619.56;;;20.70;65.67
49104;BME280;34915;52.926;11.116;2022-09-13T15:53:44;100619.22;;;20.65;67.18
49104;BME280;34915;52.926;11.116;2022-09-13T15:56:18;100613.50;;;20.68;66.28
49104;BME280;34915;52.926;11.116;2022-09-13T15:58:45;100610.56;;;20.47;69.21
49104;BME280;34915;52.926;11.116;2022-09-13T16:01:12;100606.56;;;20.35;69.47
49104;BME280;34915;52.926;11.116;2022-09-13T16:03:39;100613.91;;;20.49;67.41
49104;BME280;34915;52.926;11.116;2022-09-13T16:06:04;100613.91;;;20.57;67.65
49104;BME280;34915;52.926;11.116;2022-09-13T16:08:32;100617.53;;;20.64;66.67
49104;BME280;34915;52.926;11.116;2022-09-13T16:10:57;100611.16;;;20.73;65.66
49104;BME280;34915;52.926;11.116;2022-09-13T16:13:23;100610.50;;;20.63;66.15
49104;BME280;34915;52.926;11.116;2022-09-13T16:15:48;100619.22;;;20.65;65.90
49104;BME280;34915;52.926;11.116;2022-09-13T16:18:14;100626.25;;;20.81;63.96
49104;BME280;34915;52.926;11.116;2022-09-13T16:20:44;100618.81;;;20.83;64.44
49104;BME280;34915;52.926;11.116;2022-09-13T16:23:10;100622.94;;;20.72;64.42
49104;BME280;34915;52.926;11.116;2022-09-13T16:25:36;100620.59;;;20.69;66.00
49104;BME280;34915;52.926;11.116;2022-09-13T16:28:04;100626.63;;;20.78;64.29
49104;BME280;34915;52.926;11.116;2022-09-13T16:30:29;100623.13;;;20.70;64.16
49104;BME280;34915;52.926;11.116;2022-09-13T16:32:57;100625.78;;;20.62;64.88
49104;BME280;34915;52.926;11.116;2022-09-13T16:35:29;100625.03;;;20.46;66.25